• Join FlightAware (Why Join?)
  • Login
  • US Flag 
07:45PM EDT


 

Airport Tracker/Info


-or-


 

Live Flight TrackerFlight Track Log ✈ SWA685 ✈ 23-Jan-2014 ✈ KDTW - KBWI

Flight Track Log - Related Links

Times and Time Zones

All times are in EST time to prevent confusion due to time zone crossing. See the SWA685 flight status page for this flight to view local times or setup timezone preferences in your user account.

Time Position Orientation Groundspeed Altitude Reporting Facility
EST Latitude Longitude Course Direction KTS MPH feet Rate Location/Type
12:08PM 42.1994 -83.3717 194° South 162 186 1,500  Level Cleveland Center
12:08PM 42.1758 -83.3797 194° South 198 228 2,200 1,680 Climbing Cleveland Center
12:09PM 42.1525 -83.3844 189° South 191 220 3,300 2,100 Climbing Cleveland Center
12:09PM 42.1178 -83.3717 165° South 247 284 4,300 1,740 Climbing Cleveland Center
12:10PM 42.1108 -83.3331 104° East 243 280 5,100 2,640 Climbing Cleveland Center
12:11PM 42.1122 -83.2358 89° East 260 299 8,500 3,060 Climbing Cleveland Center
12:12PM 42.1094 -83.1317 92° East 281 323 11,400 3,120 Climbing Cleveland Center
12:13PM 42.1047 -82.9869 92° East 325 374 15,000 3,120 Climbing Cleveland Center
12:14PM 42.1003 -82.8603 93° East 338 389 17,900 2,160 Climbing Cleveland Center
12:15PM 42.0958 -82.7256 93° East 362 417 19,500 1,860 Climbing Cleveland Center
12:16PM 42.0908 -82.5803 93° East 386 444 21,800 1,980 Climbing Cleveland Center
12:17PM 42.0800 -82.4292 95° East 409 471 23,700 1,800 Climbing Cleveland Center
12:18PM 42.0225 -82.2964 120° Southeast 440 506 25,500 1,680 Climbing Cleveland Center
12:19PM 41.9119 -82.1767 141° Southeast 426 490 27,200 1,620 Climbing Cleveland Center
12:20PM 41.8236 -82.0822 141° Southeast 445 512 28,900 1,260 Climbing Cleveland Center
12:21PM 41.7236 -81.9736 141° Southeast 454 522 29,900 1,260 Climbing Cleveland Center
12:22PM 41.6186 -81.8606 141° Southeast 475 547 31,500 1,800 Climbing Cleveland Center
12:23PM 41.4986 -81.7336 142° Southeast 467 537 33,700 1,560 Climbing Cleveland Center
12:24PM 41.3931 -81.6256 142° Southeast 464 534 34,800 960 Climbing Cleveland Center
12:25PM 41.2986 -81.5200 140° Southeast 469 540 35,700 1,020 Climbing Cleveland Center
12:26PM 41.1847 -81.3994 141° Southeast 474 545 37,000 600 Climbing Cleveland Center
12:27PM 41.0819 -81.2928 142° Southeast 468 539 37,000  Level Cleveland Center
12:28PM 40.9789 -81.1828 141° Southeast 469 540 37,000  Level Cleveland Center
12:29PM 40.8742 -81.0747 142° Southeast 470 541 37,000  Level Cleveland Center
12:30PM 40.7653 -80.9603 141° Southeast 475 547 37,000  Level Cleveland Center
12:31PM 40.6611 -80.8533 142° Southeast 476 548 37,000  Level Cleveland Center
12:32PM 40.5561 -80.7450 142° Southeast 477 549 37,000  Level Cleveland Center
12:33PM 40.4519 -80.6381 142° Southeast 478 550 37,000  Level Cleveland Center
12:34PM 40.3489 -80.5317 142° Southeast 478 550 37,000  Level Cleveland Center
12:35PM 40.2267 -80.4075 142° Southeast 475 547 37,000  Level Cleveland Center
12:36PM 40.1242 -80.3047 143° Southeast 475 547 37,000  Level Cleveland Center
12:37PM 40.0331 -80.1811 134° Southeast 491 565 37,000  Level Cleveland Center
12:38PM 39.9739 -80.0150 115° Southeast 506 582 37,000 -360 Level Cleveland Center
12:40PM 39.9072 -79.8122 113° Southeast 510 587 36,300 -1,800 Descending Cleveland Center
12:41PM 39.8494 -79.6428 114° Southeast 511 588 33,400 -2,820 Descending Cleveland Center
12:42PM 39.7914 -79.4722 114° Southeast 513 590 30,500 -2,760 Descending Cleveland Center
12:42PM 39.7492 -79.3375 112° Southeast 502 578 28,500 -2,520 Descending Washington Center
12:43PM 39.6939 -79.1756 114° Southeast 502 578 26,200 -1,800 Descending Washington Center
12:44PM 39.6467 -79.0089 110° East 502 578 25,000 -600 Descending Washington Center
12:45PM 39.6056 -78.8372 107° East 500 575 25,000 -1,260 Level Washington Center
12:46PM 39.5683 -78.6658 106° East 500 575 22,500 -2,460 Descending Washington Center
12:47PM 39.5308 -78.4947 106° East 500 575 20,100 -2,400 Descending Washington Center
12:48PM 39.4931 -78.3292 106° East 489 563 17,900 -2,460 Descending Washington Center
12:49PM 39.4569 -78.1667 106° East 478 550 15,300 -1,680 Descending Washington Center
12:50PM 39.4289 -78.0206 104° East 453 521 14,500 -900 Descending Washington Center
12:51PM 39.4294 -77.8728 90° East 410 472 13,500 -900 Descending Washington Center
12:52PM 39.4336 -77.7625 87° East 404 465 12,800 -1,020 Descending Washington Center
12:53PM 39.4361 -77.6231 89° East 378 435 11,600 -960 Descending Washington Center
12:54PM 39.4422 -77.4969 86° East 359 413 11,000 -300 Descending Washington Center
12:55PM 39.4442 -77.3761 89° East 338 389 11,000  Level Washington Center
12:56PM 39.4583 -77.2553 81° East 338 389 11,000 -300 Level Washington Center
12:57PM 39.4747 -77.1347 80° East 338 389 10,400 -1,020 Descending Washington Center
12:59PM 39.5000 -76.9667 79° East 302 348 8,500 -1,200 Descending Potomac TRACON
01:00PM 39.4667 -76.8667 113° Southeast 299 344 7,500 -1,020 Descending Potomac TRACON
01:01PM 39.4500 -76.7667 102° East 301 346 6,600 -1,020 Descending Potomac TRACON
01:02PM 39.4333 -76.6667 102° East 295 339 5,600 -1,200 Descending Potomac TRACON
01:03PM 39.3833 -76.5833 128° Southeast 280 322 4,300 -1,500 Descending Potomac TRACON
01:04PM 39.3167 -76.5167 142° Southeast 274 315 2,700 -1,200 Descending Potomac TRACON
01:05PM 39.2500 -76.5167 180° South 241 277 1,900 -420 Descending Potomac TRACON
01:06PM 39.2000 -76.5500 207° Southwest 182 209 2,000 -300 Climbing Potomac TRACON
01:07PM 39.1667 -76.5667 201° Southwest 182 209 1,400 -360 Descending Potomac TRACON
01:08PM 39.1333 -76.6167 229° Southwest 145 167 1,300 -540 Descending Potomac TRACON
01:09PM 39.1500 -76.6500 303° West 134 154 400 -900 Descending Potomac TRACON
01:11PM 39.1754 -76.6683 331° Northwest  Level Estimated
01:18PM 39.1754 -76.6683 293° West  Level Estimated